Upstream stations:
Downstream station:
SHEF ID: CHNK1 Cheney Lake
STATION TYPE: RESERVOIR
Flood Pool: Bottom = 1421.60, Top = 1429.00
PRECIP ELEVATION STORAGE INFLOW RELEASE WIND-DIRWIND-SPEED VOLTAGE
in ft ac-ft cfs cfs deg mph volt
Ccp-Rev Ccp-Rev Ccp-Rev Rev-Regi Rev-Regi Ccp-Rev Ccp-Rev Ccp-Rev
(US/Central)
08/28 00:00 0.01 1420.14 153503 435 0 ---- ---- 13.09
08/28 01:00 0.00 1420.11 153228 0 0 ---- ---- 13.10
08/28 02:00 0.00 1420.10 153137 0 0 ---- ---- 13.11
08/28 03:00 0.00 1420.10 153137 0 0 ---- ---- 13.11
08/28 04:00 0.00 1420.11 153228 0 0 ---- ---- 13.11
08/28 05:00 0.00 1420.13 153411 0 0 ---- ---- 13.11
08/28 06:00 0.00 1420.13 153411 0 0 ---- ---- 13.11
08/28 07:00 0.00 1420.12 153320 0 0 ---- ---- 13.11
08/28 08:00 0.00 1420.12 153320 0 0 ---- ---- 13.12
08/28 09:00 0.00 1420.11 153228 0 0 ---- ---- 13.10
08/28 10:00 0.00 1420.11 153228 0 0 ---- ---- 13.11
08/28 11:00 0.00 1420.11 153228 0 0 ---- ---- 13.11
08/28 12:00 0.00 1420.11 153228 0 0 ---- ---- 13.10
08/28 13:00 0.00 1420.12 153320 0 0 ---- ---- 13.10
08/28 14:00 0.00 1420.11 153228 0 0 ---- ---- 13.09
08/28 15:00 0.00 1420.11 153228 0 0 ---- ---- 13.09
08/28 16:00 0.00 1420.11 153228 0 0 ---- ---- 13.08
08/28 17:00 0.00 1420.11 153228 0 0 ---- ---- 13.08
08/28 18:00 0.00 1420.11 153228 0 0 ---- ---- 13.08
08/28 19:00 0.00 1420.11 153228 0 0 ---- ---- 13.07
08/28 20:00 0.00 1420.11 153228 0 0 ---- ---- 13.08
08/28 21:00 0.00 1420.08 152954 0 0 ---- ---- 13.07
08/28 22:00 0.00 1420.09 153045 0 0 ---- ---- 13.08
08/28 23:00 0.00 1420.10 153137 0 0 ---- ---- 13.09